Time;durP1;ratioP1;P1;durP2;ratioP2;P2;SDS_P1;SDS_P2;PMS_P1;PMS_P2;Temp;Humidity;BMP_temperature;BMP_pressure;BME280_temperature;BME280_humidity;BME280_pressure;Samples;Min_cycle;Max_cycle;Signal;HPM_P1;HPM_P2
2022/07/28 00:00:32;;;;;;;4.97;2.53;;;;;;;14.39;69.69;101784.78;5282981;28;20522;-73
2022/07/28 00:03:04;;;;;;;6.50;2.10;;;;;;;14.33;69.08;101783.97;5283279;28;20218;-72
2022/07/28 00:05:35;;;;;;;8.00;2.10;;;;;;;14.32;69.68;101775.22;5283526;28;20032;-72
2022/07/28 00:08:08;;;;;;;6.20;1.83;;;;;;;14.37;70.31;101783.91;5283379;28;20253;-71
2022/07/28 00:10:40;;;;;;;6.13;1.92;;;;;;;14.19;70.37;101789.38;5282914;28;20017;-72
2022/07/28 00:13:11;;;;;;;5.20;1.70;;;;;;;14.13;69.53;101785.06;5283346;28;20043;-72
2022/07/28 00:15:43;;;;;;;3.57;2.07;;;;;;;14.26;69.67;101779.69;5283439;28;20468;-72
2022/07/28 00:18:14;;;;;;;4.70;2.17;;;;;;;14.04;69.94;101780.81;5282744;28;20088;-72
2022/07/28 00:20:46;;;;;;;7.07;2.17;;;;;;;13.97;70.71;101776.50;5282652;28;20379;-72
2022/07/28 00:23:17;;;;;;;5.63;1.90;;;;;;;13.96;70.98;101787.91;5282583;28;20356;-71
2022/07/28 00:25:48;;;;;;;5.20;2.17;;;;;;;13.92;71.65;101783.56;5282807;28;20037;-71
2022/07/28 00:28:20;;;;;;;3.37;2.00;;;;;;;14.17;70.79;101794.66;5282700;28;20032;-70
2022/07/28 00:30:54;;;;;;;3.87;1.73;;;;;;;13.90;70.07;101787.09;5282536;28;20040;-71
2022/07/28 00:33:25;;;;;;;6.05;2.15;;;;;;;13.91;70.32;101778.34;5282988;28;20451;-72
2022/07/28 00:35:56;;;;;;;5.23;2.10;;;;;;;13.82;70.77;101776.69;5282190;28;20037;-72
2022/07/28 00:38:28;;;;;;;6.27;2.33;;;;;;;13.88;71.16;101773.13;5285877;28;20388;-71
2022/07/28 00:41:12;;;;;;;6.47;2.30;;;;;;;14.01;70.70;101777.38;5269282;28;20089;-71
2022/07/28 00:43:46;;;;;;;8.15;2.25;;;;;;;14.01;69.74;101772.97;5287019;28;20081;-72
2022/07/28 00:46:19;;;;;;;6.15;1.90;;;;;;;13.95;70.26;101780.91;5286255;28;20020;-71
2022/07/28 00:48:53;;;;;;;6.93;2.00;;;;;;;13.79;71.34;101774.97;5287263;28;20363;-72
2022/07/28 00:51:26;;;;;;;4.72;1.85;;;;;;;13.82;70.22;101780.16;5286557;28;20051;-72
2022/07/28 00:53:57;;;;;;;5.85;2.15;;;;;;;13.71;70.17;101768.06;5286886;28;20077;-72
2022/07/28 00:56:29;;;;;;;6.17;2.50;;;;;;;13.88;71.36;101762.63;5286301;28;20044;-72
2022/07/28 00:59:01;;;;;;;5.15;1.95;;;;;;;13.72;71.07;101752.34;5286267;28;20028;-71
2022/07/28 01:01:32;;;;;;;3.70;1.83;;;;;;;13.63;72.15;101750.66;5286747;28;20051;-71
2022/07/28 01:04:04;;;;;;;4.63;1.80;;;;;;;13.66;70.88;101749.78;5286411;28;20021;-71
2022/07/28 01:06:53;;;;;;;5.60;2.42;;;;;;;13.48;71.33;101764.78;5286341;28;20524;-71
2022/07/28 01:09:40;;;;;;;4.45;1.90;;;;;;;13.40;72.46;101766.59;5286300;28;20040;-71
2022/07/28 01:12:49;;;;;;;3.50;1.90;;;;;;;13.42;71.33;101769.22;5286269;28;20105;-71
2022/07/28 01:15:29;;;;;;;5.10;1.90;;;;;;;13.42;72.79;101761.34;5286970;28;20029;-71
2022/07/28 01:18:07;;;;;;;5.03;2.00;;;;;;;13.38;71.93;101773.63;5286572;28;20043;-72
2022/07/28 01:20:47;;;;;;;5.43;2.20;;;;;;;13.60;72.45;101769.03;5286102;28;20028;-71
2022/07/28 01:23:30;;;;;;;5.70;1.92;;;;;;;13.50;71.64;101760.38;5286198;28;20032;-71
2022/07/28 01:26:07;;;;;;;9.40;2.38;;;;;;;13.37;72.62;101761.41;5286195;28;20371;-71
2022/07/28 01:28:58;;;;;;;5.22;2.38;;;;;;;13.28;72.56;101766.66;5285853;28;20115;-72
2022/07/28 01:31:42;;;;;;;6.88;2.22;;;;;;;13.28;73.32;101761.44;5285563;28;20028;-71
2022/07/28 01:34:18;;;;;;;5.30;1.98;;;;;;;13.16;74.30;101758.94;5286167;28;20024;-71
2022/07/28 01:36:57;;;;;;;5.05;2.38;;;;;;;13.09;74.15;101758.13;5286102;28;20031;-72
2022/07/28 01:39:32;;;;;;;5.65;2.00;;;;;;;12.94;73.87;101754.72;5285937;28;20025;-71
2022/07/28 01:42:06;;;;;;;4.78;2.08;;;;;;;12.92;75.43;101758.22;5285650;28;20021;-72
2022/07/28 01:44:43;;;;;;;5.50;2.10;;;;;;;12.83;75.87;101747.81;5285843;28;20039;-72
2022/07/28 01:47:15;;;;;;;4.32;1.90;;;;;;;12.72;76.41;101746.16;5285436;28;20044;-71
2022/07/28 01:49:49;;;;;;;6.00;2.20;;;;;;;12.77;76.67;101743.50;5284839;28;20111;-71
2022/07/28 01:52:23;;;;;;;7.32;3.13;;;;;;;12.66;75.63;101742.72;5285410;28;20024;-71
2022/07/28 01:54:56;;;;;;;4.80;2.17;;;;;;;12.64;76.77;101742.72;5285575;28;20024;-71
2022/07/28 01:57:31;;;;;;;5.53;2.33;;;;;;;12.67;76.68;101742.69;5284988;28;20510;-72
2022/07/28 02:00:06;;;;;;;11.77;2.58;;;;;;;12.58;77.15;101732.28;5285312;28;20053;-71
2022/07/28 02:02:41;;;;;;;6.80;2.65;;;;;;;12.53;77.25;101737.53;5284985;28;20036;-72
2022/07/28 02:05:15;;;;;;;3.38;2.10;;;;;;;12.58;76.50;101732.28;5267409;28;20085;-72
2022/07/28 02:07:48;;;;;;;7.07;1.90;;;;;;;12.62;76.74;101727.91;5285314;28;20031;-72
2022/07/28 02:10:20;;;;;;;;;;;;;;;12.60;74.90;101727.91;5285614;28;20147;-72
2022/07/28 02:12:53;;;;;;;6.38;2.50;;;;;;;12.49;76.45;101727.97;5285853;28;19913;-70
2022/07/28 02:15:26;;;;;;;5.07;2.30;;;;;;;12.55;78.69;101730.53;5285509;28;20032;-71
2022/07/28 02:17:59;;;;;;;7.90;3.00;;;;;;;12.30;77.19;101729.81;5286052;28;20040;-71
2022/07/28 02:20:30;;;;;;;;;;;;;;;12.43;75.30;101728.00;5285801;28;20024;-71
2022/07/28 02:23:03;;;;;;;6.97;2.65;;;;;;;12.30;77.94;101726.31;5284690;28;19927;-71
2022/07/28 02:25:36;;;;;;;;;;;;;;;12.30;75.81;101723.69;5285183;28;20036;-71
2022/07/28 02:28:09;;;;;;;;;;;;;;;12.24;75.27;101727.22;5285343;28;19908;-70
2022/07/28 02:30:49;;;;;;;4.57;2.22;;;;;;;12.23;77.95;101725.47;5284701;28;19935;-71
2022/07/28 02:33:23;;;;;;;6.10;2.63;;;;;;;12.33;79.69;101726.31;5284604;28;20044;-71
2022/07/28 02:35:59;;;;;;;5.95;2.50;;;;;;;12.30;78.69;101719.38;5284871;28;20162;-71
2022/07/28 02:38:36;;;;;;;4.35;2.13;;;;;;;12.22;77.94;101729.00;5284462;28;20025;-71
2022/07/28 02:41:25;;;;;;;6.55;2.63;;;;;;;12.19;79.15;101723.78;5284805;28;20025;-72
2022/07/28 02:44:00;;;;;;;5.68;2.47;;;;;;;12.15;79.25;101728.13;5284579;28;20032;-71
2022/07/28 02:46:41;;;;;;;7.45;2.50;;;;;;;12.29;79.17;101732.44;5284512;28;20464;-72
2022/07/28 02:49:20;;;;;;;5.03;2.35;;;;;;;12.10;80.07;101724.66;5283959;28;20035;-72
2022/07/28 02:51:53;;;;;;;6.03;2.72;;;;;;;12.04;78.86;101728.19;5284191;28;20116;-72
2022/07/28 02:54:26;;;;;;;4.88;2.20;;;;;;;12.03;79.32;101721.22;5283857;28;20028;-71
2022/07/28 02:56:58;;;;;;;;;;;;;;;12.12;77.24;101722.91;5285074;28;20039;-71
2022/07/28 02:59:30;;;;;;;7.13;2.50;;;;;;;12.04;80.88;101715.13;5284503;28;19935;-71
2022/07/28 03:02:03;;;;;;;7.00;2.92;;;;;;;11.93;80.06;101718.63;5283979;28;20031;-71
2022/07/28 03:07:29;;;;;;;7.22;2.75;;;;;;;11.70;79.83;101719.53;5269465;28;20425;-72
2022/07/28 03:10:03;;;;;;;4.80;2.50;;;;;;;11.63;81.83;101710.84;5283643;28;20035;-72
2022/07/28 03:12:34;;;;;;;5.50;3.28;;;;;;;11.59;81.19;101711.75;5283728;28;20033;-72
2022/07/28 03:15:06;;;;;;;6.53;2.70;;;;;;;11.55;81.47;101715.22;5283489;28;20033;-72
2022/07/28 03:17:37;;;;;;;6.13;2.63;;;;;;;11.67;81.57;101720.44;5265823;28;20129;-72
2022/07/28 03:20:10;;;;;;;7.00;3.07;;;;;;;11.45;80.70;101726.56;5265845;28;20080;-72
2022/07/28 03:22:41;;;;;;;4.55;2.50;;;;;;;11.42;81.10;101724.81;5283082;28;20388;-71
2022/07/28 03:25:18;;;;;;;4.93;2.43;;;;;;;11.36;82.11;101726.56;5283824;28;20036;-71
2022/07/28 03:27:51;;;;;;;5.43;2.47;;;;;;;11.31;82.09;101727.44;5283625;28;20079;-71
2022/07/28 03:30:41;;;;;;;5.53;3.13;;;;;;;11.25;81.50;101726.56;5283456;28;20028;-71
2022/07/28 03:33:13;;;;;;;4.85;2.33;;;;;;;11.34;82.05;101721.34;5283980;28;20115;-71
2022/07/28 03:35:49;;;;;;;4.85;2.80;;;;;;;11.33;81.29;101730.03;5265739;28;20032;-71
2022/07/28 03:38:24;;;;;;;5.80;3.10;;;;;;;11.12;81.83;101725.69;5283369;28;20032;-71
2022/07/28 03:40:57;;;;;;;8.43;2.88;;;;;;;11.12;82.91;101721.38;5283233;28;20047;-71
2022/07/28 03:43:30;;;;;;;6.72;2.80;;;;;;;11.02;82.48;101723.97;5283345;28;20123;-72
2022/07/28 03:46:01;;;;;;;7.45;2.88;;;;;;;11.06;83.70;101721.38;5283499;28;20036;-71
2022/07/28 03:48:33;;;;;;;7.50;3.13;;;;;;;11.13;83.81;101723.09;5283703;28;20055;-71
2022/07/28 03:51:04;;;;;;;5.17;2.53;;;;;;;11.12;82.84;101725.69;5283779;28;20033;-71
2022/07/28 03:53:36;;;;;;;6.63;2.73;;;;;;;11.04;82.80;101715.25;5282624;28;20041;-72
2022/07/28 03:56:08;;;;;;;7.23;2.73;;;;;;;11.00;83.71;101718.75;5283487;28;20056;-72
2022/07/28 03:58:39;;;;;;;7.13;2.67;;;;;;;10.95;83.87;101718.75;5264901;28;20116;-71
2022/07/28 04:01:10;;;;;;;4.87;2.50;;;;;;;10.97;83.53;101716.13;5282911;28;20443;-72
2022/07/28 04:03:42;;;;;;;7.60;3.20;;;;;;;11.09;83.63;101718.75;5283008;28;20471;-72
2022/07/28 04:06:14;;;;;;;7.67;2.93;;;;;;;11.07;84.57;101715.25;5283246;28;20074;-71
2022/07/28 04:08:45;;;;;;;7.97;3.45;;;;;;;10.95;84.08;101715.28;5283610;28;20456;-71
2022/07/28 04:11:17;;;;;;;7.97;3.17;;;;;;;10.87;83.49;101719.63;5282609;28;20104;-72
2022/07/28 04:13:48;;;;;;;7.47;3.80;;;;;;;10.95;83.93;101717.88;5282963;28;20046;-72
2022/07/28 04:16:20;;;;;;;6.13;3.00;;;;;;;10.85;83.27;101719.63;5282683;28;20075;-72
2022/07/28 04:18:51;;;;;;;10.37;3.47;;;;;;;10.94;82.98;101718.75;5282298;28;20060;-70
2022/07/28 04:21:23;;;;;;;8.47;3.07;;;;;;;10.99;83.17;101721.34;5282724;28;20056;-72
2022/07/28 04:23:54;;;;;;;6.20;3.03;;;;;;;11.02;84.16;101716.16;5282701;28;20036;-73
2022/07/28 04:26:25;;;;;;;7.27;3.10;;;;;;;10.87;82.96;101720.47;5282499;28;20090;-73
2022/07/28 04:28:57;;;;;;;6.53;3.47;;;;;;;10.92;82.74;101721.34;5283162;28;20043;-73
2022/07/28 04:31:28;;;;;;;7.00;2.70;;;;;;;10.92;82.30;101718.75;5282935;28;20302;-73
2022/07/28 04:33:59;;;;;;;5.67;3.17;;;;;;;10.94;82.37;101717.00;5282570;28;20033;-74
2022/07/28 04:36:31;;;;;;;9.67;4.10;;;;;;;11.00;82.40;101716.16;5282523;28;20032;-73
2022/07/28 04:39:03;;;;;;;7.43;3.10;;;;;;;10.94;82.27;101722.22;5282255;28;20033;-73
2022/07/28 04:41:35;;;;;;;7.43;2.73;;;;;;;11.03;82.04;101717.88;5282535;28;20433;-73
2022/07/28 04:44:09;;;;;;;10.50;3.42;;;;;;;11.01;82.58;101722.22;5282402;28;20085;-73
2022/07/28 04:46:40;;;;;;;6.28;2.83;;;;;;;10.99;83.64;101718.75;5282170;28;20044;-72
2022/07/28 04:49:12;;;;;;;5.47;2.90;;;;;;;11.01;83.09;101714.41;5282526;28;20044;-72
2022/07/28 04:51:51;;;;;;;9.77;3.60;;;;;;;11.02;82.86;101713.53;5282481;28;20349;-73
2022/07/28 04:54:22;;;;;;;6.95;3.53;;;;;;;11.13;82.92;101709.19;5282571;28;20051;-72
2022/07/28 04:56:53;;;;;;;6.53;2.70;;;;;;;11.17;83.13;101712.66;5282620;28;20055;-73
2022/07/28 04:59:25;;;;;;;4.73;2.80;;;;;;;11.31;82.89;101713.53;5282471;28;20035;-73
2022/07/28 05:01:58;;;;;;;8.63;3.23;;;;;;;11.21;82.45;101720.50;5282188;28;20352;-73
2022/07/28 05:04:30;;;;;;;7.35;2.70;;;;;;;11.25;82.31;101717.03;5282070;28;20029;-72
2022/07/28 05:07:01;;;;;;;7.80;3.57;;;;;;;11.26;81.89;101718.75;5282043;28;20025;-72
2022/07/28 05:09:33;;;;;;;7.10;2.93;;;;;;;11.32;81.67;101721.34;5282126;28;20029;-72
2022/07/28 05:12:05;;;;;;;9.87;3.20;;;;;;;11.44;82.95;101711.75;5282619;28;20029;-73
2022/07/28 05:14:36;;;;;;;7.00;3.50;;;;;;;11.45;81.87;101718.72;5281743;28;20482;-73
2022/07/28 05:17:08;;;;;;;11.03;3.53;;;;;;;11.53;81.29;101716.97;5264348;28;20025;-73
2022/07/28 05:19:39;;;;;;;6.77;3.63;;;;;;;11.66;81.70;101728.28;5282389;28;20320;-73
2022/07/28 05:22:11;;;;;;;9.37;3.50;;;;;;;11.79;80.92;101729.97;5282213;28;20553;-73
2022/07/28 05:24:42;;;;;;;7.63;2.87;;;;;;;11.84;80.71;101722.13;5283978;28;20062;-72
2022/07/28 05:27:13;;;;;;;6.07;3.00;;;;;;;11.94;80.29;101728.22;5286030;28;20031;-73
2022/07/28 05:29:45;;;;;;;6.57;3.10;;;;;;;12.05;80.16;101734.28;5286047;28;20471;-73
2022/07/28 05:32:16;;;;;;;6.87;2.87;;;;;;;12.27;80.02;101731.56;5285966;28;20028;-74
2022/07/28 05:34:47;;;;;;;7.97;2.93;;;;;;;12.33;79.90;101727.19;5286283;28;20024;-72
2022/07/28 05:37:19;;;;;;;8.87;2.90;;;;;;;12.49;79.25;101733.19;5285949;28;20098;-72
2022/07/28 05:39:50;;;;;;;8.40;3.00;;;;;;;12.66;78.99;101724.41;5285938;28;20032;-73
2022/07/28 05:42:22;;;;;;;8.07;3.10;;;;;;;12.86;77.34;101737.31;5285424;28;20032;-73
2022/07/28 05:44:53;;;;;;;7.03;3.30;;;;;;;12.94;76.97;101722.44;5285755;28;20032;-73
2022/07/28 05:47:24;;;;;;;9.27;2.93;;;;;;;13.11;76.44;101733.66;5285534;28;20064;-73
2022/07/28 05:50:00;;;;;;;5.47;2.50;;;;;;;13.37;76.27;101731.72;5285405;28;20058;-72
2022/07/28 05:52:31;;;;;;;7.10;2.65;;;;;;;13.50;76.05;101725.47;5285598;28;20025;-73
2022/07/28 05:55:04;;;;;;;5.60;2.87;;;;;;;13.58;75.59;101725.41;5285213;28;20040;-73
2022/07/28 05:57:37;;;;;;;5.63;2.85;;;;;;;13.75;73.96;101733.06;5285562;28;20413;-73
2022/07/28 06:00:19;;;;;;;12.63;3.03;;;;;;;13.81;73.28;101733.00;5285239;28;20375;-73
2022/07/28 06:02:51;;;;;;;5.47;2.35;;;;;;;13.90;73.08;101727.69;5285884;28;20451;-72
2022/07/28 06:05:22;;;;;;;7.37;2.73;;;;;;;13.97;73.35;101728.47;5285394;28;20040;-73
2022/07/28 06:07:54;;;;;;;8.40;2.90;;;;;;;14.11;71.81;101733.56;5285377;28;20100;-73
2022/07/28 06:10:57;;;;;;;7.63;2.80;;;;;;;14.21;71.14;101730.78;5285270;28;20041;-73
2022/07/28 06:13:18;;;;;;;;;;;;;;;14.44;71.42;101727.00;5285215;28;20040;-73
2022/07/28 06:15:51;;;;;;;10.55;2.30;;;;;;;14.36;71.10;101732.34;5285078;28;19998;-73
2022/07/28 06:18:22;;;;;;;8.02;2.72;;;;;;;14.39;70.83;101731.44;5284802;28;20434;-73
2022/07/28 06:20:54;;;;;;;6.80;3.47;;;;;;;14.47;70.84;101734.81;5284896;28;20028;-73
2022/07/28 06:23:25;;;;;;;7.67;2.53;;;;;;;14.48;70.74;101731.31;5284405;28;20032;-73
2022/07/28 06:25:56;;;;;;;8.77;2.60;;;;;;;14.51;71.33;101727.78;5284860;28;20329;-74
2022/07/28 06:28:28;;;;;;;6.13;2.60;;;;;;;14.56;70.52;101718.94;5285316;28;20111;-72
2022/07/28 06:30:59;;;;;;;6.93;2.87;;;;;;;14.64;70.21;101720.63;5285286;28;20043;-73
2022/07/28 06:33:31;;;;;;;7.17;2.90;;;;;;;14.64;70.11;101725.88;5284928;28;20033;-73
2022/07/28 06:36:02;;;;;;;15.73;3.17;;;;;;;14.83;69.51;101726.44;5284369;28;20043;-73
2022/07/28 06:38:34;;;;;;;12.50;3.17;;;;;;;14.79;68.25;101724.78;5285086;28;20043;-73
2022/07/28 06:41:05;;;;;;;6.03;2.50;;;;;;;14.84;67.94;101734.31;5284794;28;20025;-73
2022/07/28 06:43:36;;;;;;;9.30;2.83;;;;;;;14.98;68.08;101725.38;5284629;28;20124;-73
2022/07/28 06:46:08;;;;;;;9.93;2.90;;;;;;;15.02;67.71;101735.81;5284157;28;20043;-73
2022/07/28 06:48:42;;;;;;;6.63;2.50;;;;;;;15.10;68.64;101725.16;5285540;28;20055;-74
2022/07/28 06:51:17;;;;;;;7.05;2.50;;;;;;;15.11;68.47;101721.63;5266118;28;20040;-74
2022/07/28 06:53:49;;;;;;;9.82;2.83;;;;;;;15.20;67.13;101725.84;5266874;28;20044;-74
2022/07/28 06:56:21;;;;;;;8.30;2.77;;;;;;;15.20;67.10;101721.50;5267345;28;20028;-74
2022/07/28 06:58:52;;;;;;;6.53;2.50;;;;;;;15.33;67.14;101735.28;5266608;28;20502;-74
2022/07/28 07:01:24;;;;;;;5.33;2.27;;;;;;;15.37;66.95;101736.09;5284386;28;20028;-74
2022/07/28 07:03:55;;;;;;;7.00;2.37;;;;;;;15.40;65.74;101736.03;5284143;28;20097;-74
2022/07/28 07:06:26;;;;;;;6.17;1.90;;;;;;;15.50;66.44;101733.22;5266319;28;20032;-74
2022/07/28 07:08:58;;;;;;;7.23;2.27;;;;;;;15.65;65.62;101736.47;5284168;28;20063;-74
2022/07/28 07:11:29;;;;;;;12.07;2.53;;;;;;;15.80;65.83;101728.31;5284112;28;20032;-73
2022/07/28 07:14:01;;;;;;;6.30;2.10;;;;;;;15.78;66.99;101731.88;5283706;28;20476;-73
2022/07/28 07:16:33;;;;;;;8.10;2.50;;;;;;;15.93;64.12;101730.69;5283674;28;20537;-73
2022/07/28 07:19:05;;;;;;;;;;;;;;;16.34;65.17;101742.09;5284631;28;20459;-73
2022/07/28 07:21:36;;;;;;;7.97;2.30;;;;;;;16.43;63.40;101731.38;5284015;28;19912;-74
2022/07/28 07:24:10;;;;;;;6.13;2.20;;;;;;;16.59;64.13;101732.78;5284034;28;20035;-75
2022/07/28 07:26:41;;;;;;;6.25;2.28;;;;;;;16.69;62.52;101728.16;5283569;28;20034;-74
2022/07/28 07:29:12;;;;;;;7.43;2.97;;;;;;;16.88;62.48;101735.66;5283878;28;20411;-74
2022/07/28 07:31:44;;;;;;;5.30;1.93;;;;;;;16.89;61.99;101737.41;5283335;28;20111;-73
2022/07/28 07:34:15;;;;;;;5.83;2.40;;;;;;;16.71;62.53;101736.03;5283547;28;20033;-73
2022/07/28 07:36:47;;;;;;;7.40;2.27;;;;;;;16.64;63.46;101724.78;5284102;28;20035;-73
2022/07/28 07:39:18;;;;;;;5.50;2.17;;;;;;;16.45;61.84;101726.09;5283112;28;20039;-73
2022/07/28 07:41:49;;;;;;;6.40;2.17;;;;;;;16.42;61.71;101729.66;5283071;28;20035;-72
2022/07/28 07:44:21;;;;;;;7.30;2.43;;;;;;;16.43;62.17;101723.50;5266008;28;20032;-72
2022/07/28 07:46:52;;;;;;;5.43;2.10;;;;;;;16.59;62.29;101721.38;5264711;28;20078;-73
2022/07/28 07:49:23;;;;;;;7.03;2.30;;;;;;;16.72;62.20;101717.56;5265375;28;20036;-73
2022/07/28 07:51:55;;;;;;;9.00;2.57;;;;;;;16.62;62.02;101718.69;5283438;28;20031;-75
2022/07/28 07:54:26;;;;;;;8.73;3.13;;;;;;;16.62;62.87;101723.09;5283221;28;20041;-74
2022/07/28 07:56:57;;;;;;;6.73;2.07;;;;;;;16.69;62.19;101722.03;5282981;28;20471;-75
2022/07/28 07:59:29;;;;;;;4.63;2.17;;;;;;;16.87;61.38;101715.50;5283441;28;20036;-74
2022/07/28 08:02:01;;;;;;;9.68;2.42;;;;;;;17.02;61.48;101717.75;5282901;28;20125;-73
2022/07/28 08:04:32;;;;;;;4.07;1.80;;;;;;;17.03;59.59;101722.09;5282993;28;20511;-74
2022/07/28 08:07:04;;;;;;;4.00;1.83;;;;;;;17.26;60.37;101712.78;5283184;28;20471;-74
2022/07/28 08:09:36;;;;;;;10.00;2.40;;;;;;;17.23;60.35;101708.44;5283037;28;20025;-74
2022/07/28 08:12:07;;;;;;;15.47;3.43;;;;;;;17.35;59.88;101717.78;5283033;28;20033;-73
2022/07/28 08:14:39;;;;;;;6.83;2.50;;;;;;;17.39;60.27;101706.28;5283432;28;20464;-75
2022/07/28 08:17:10;;;;;;;9.33;2.40;;;;;;;17.42;59.68;101706.19;5283037;28;20259;-73
2022/07/28 08:19:42;;;;;;;6.27;2.10;;;;;;;17.51;58.41;101705.06;5283034;28;20447;-74
2022/07/28 08:22:14;;;;;;;7.50;2.20;;;;;;;17.61;59.20;101708.31;5283031;28;20028;-75
2022/07/28 08:24:45;;;;;;;;;;;;;;;17.83;58.83;101705.97;5283614;28;20142;-75
2022/07/28 08:27:17;;;;;;;7.22;2.20;;;;;;;17.81;57.08;101700.72;5282915;28;20006;-75
2022/07/28 08:29:48;;;;;;;6.77;2.37;;;;;;;17.90;57.30;101706.69;5283028;28;20044;-75
2022/07/28 08:32:20;;;;;;;4.87;1.87;;;;;;;18.02;58.39;101703.69;5283394;28;20050;-75
2022/07/28 08:34:53;;;;;;;6.93;2.03;;;;;;;18.15;59.10;101702.41;5283043;28;20033;-76
2022/07/28 08:37:24;;;;;;;4.63;1.88;;;;;;;18.14;56.35;101705.94;5282942;28;20099;-73
2022/07/28 08:39:56;;;;;;;8.33;1.73;;;;;;;18.17;56.28;101707.66;5265548;28;20028;-73
2022/07/28 08:42:42;;;;;;;7.83;2.53;;;;;;;18.27;57.12;101700.31;5282673;28;20036;-74
2022/07/28 08:45:15;;;;;;;6.80;2.20;;;;;;;18.45;57.45;101701.50;5283540;28;20025;-75
2022/07/28 08:47:49;;;;;;;6.43;1.88;;;;;;;18.73;55.04;101698.88;5282986;28;20126;-74
2022/07/28 08:50:24;;;;;;;8.50;2.10;;;;;;;18.66;54.70;101692.06;5282923;28;20033;-75
2022/07/28 08:52:57;;;;;;;6.93;2.00;;;;;;;18.73;56.29;101696.25;5282913;28;20032;-74
2022/07/28 08:55:30;;;;;;;7.72;2.05;;;;;;;18.92;57.66;101701.81;5283390;28;20040;-74
2022/07/28 08:58:02;;;;;;;5.63;2.40;;;;;;;19.00;55.45;101698.91;5283633;28;20086;-74
2022/07/28 09:00:34;;;;;;;3.95;1.90;;;;;;;19.09;55.55;101701.25;5287369;28;20032;-76
2022/07/28 09:03:05;;;;;;;8.13;2.97;;;;;;;19.31;52.93;101690.78;5286614;28;20035;-73
2022/07/28 09:05:40;;;;;;;4.43;1.73;;;;;;;19.27;53.18;101683.88;5286652;28;20071;-74
2022/07/28 09:08:12;;;;;;;6.47;2.05;;;;;;;19.36;53.13;101686.22;5286609;28;20040;-74
2022/07/28 09:10:44;;;;;;;5.83;2.10;;;;;;;19.50;53.72;101683.09;5286717;28;20028;-74
2022/07/28 09:13:17;;;;;;;7.72;2.15;;;;;;;19.50;51.83;101676.00;5286759;28;20279;-74
2022/07/28 09:15:48;;;;;;;8.48;2.00;;;;;;;19.73;54.43;101673.44;5268259;28;20392;-74
2022/07/28 09:18:20;;;;;;;8.67;2.53;;;;;;;19.79;52.42;101663.53;5286424;28;20040;-74
2022/07/28 09:20:52;;;;;;;8.07;2.13;;;;;;;19.93;54.04;101673.59;5286564;28;20064;-74
2022/07/28 09:23:23;;;;;;;7.65;2.10;;;;;;;20.08;52.95;101660.72;5285831;28;20024;-74
2022/07/28 09:26:07;;;;;;;6.70;1.90;;;;;;;20.19;50.70;101661.16;5286820;28;20036;-74
2022/07/28 09:28:54;;;;;;;6.88;2.20;;;;;;;19.98;51.79;101663.69;5286682;28;20032;-75
2022/07/28 09:31:27;;;;;;;6.15;2.25;;;;;;;19.87;50.92;101660.59;5286173;28;20029;-73
2022/07/28 09:34:00;;;;;;;8.23;2.22;;;;;;;20.08;51.11;101644.81;5286334;28;20472;-73
2022/07/28 09:36:39;;;;;;;5.05;1.95;;;;;;;20.22;50.79;101645.13;5286408;28;20413;-74
2022/07/28 09:39:26;;;;;;;6.78;1.98;;;;;;;20.30;49.19;101640.41;5286370;28;20058;-74
2022/07/28 09:41:58;;;;;;;5.05;1.88;;;;;;;20.44;49.80;101631.03;5286181;28;20020;-74
2022/07/28 09:44:29;;;;;;;8.95;2.00;;;;;;;20.60;48.37;101634.78;5286027;28;20039;-74
2022/07/28 09:47:25;;;;;;;6.90;2.13;;;;;;;20.86;49.16;101628.41;5285945;28;20052;-73
2022/07/28 09:49:57;;;;;;;7.20;2.20;;;;;;;20.89;47.43;101640.66;5285936;28;20373;-73
2022/07/28 09:52:30;;;;;;;9.35;2.13;;;;;;;20.97;47.28;101637.69;5285803;28;20040;-73
2022/07/28 09:55:09;;;;;;;11.98;2.03;;;;;;;21.18;49.18;101636.75;5285565;28;20131;-75
2022/07/28 09:57:41;;;;;;;6.63;2.08;;;;;;;22.10;48.74;101646.78;5286092;28;20487;-74
2022/07/28 10:00:24;;;;;;;6.17;2.03;;;;;;;23.12;42.53;101629.38;5285794;28;20037;-74
2022/07/28 10:02:56;;;;;;;7.10;1.80;;;;;;;24.13;40.28;101628.34;5286227;28;20017;-75
2022/07/28 10:05:48;;;;;;;7.30;1.93;;;;;;;25.77;38.30;101634.66;5285832;28;20384;-73
2022/07/28 10:08:38;;;;;;;5.38;1.98;;;;;;;26.34;37.54;101641.66;5286463;28;20070;-72
2022/07/28 10:11:12;;;;;;;5.32;1.90;;;;;;;25.88;35.11;101634.81;5285468;28;20033;-74
2022/07/28 10:14:05;;;;;;;7.88;1.85;;;;;;;26.54;35.17;101641.22;5285588;28;20036;-73
2022/07/28 10:16:51;;;;;;;6.88;1.95;;;;;;;27.67;33.85;101635.34;5285901;28;20107;-73
2022/07/28 10:19:23;;;;;;;4.28;1.98;;;;;;;27.58;32.10;101643.06;5286326;28;20032;-74
2022/07/28 10:21:56;;;;;;;7.35;1.83;;;;;;;28.10;33.43;101638.44;5286368;28;20037;-75
2022/07/28 10:24:30;;;;;;;6.10;2.08;;;;;;;27.76;32.73;101632.00;5287539;28;20116;-73
2022/07/28 10:27:04;;;;;;;5.00;2.00;;;;;;;27.11;32.91;101633.84;5290878;28;20024;-72
2022/07/28 10:29:38;;;;;;;5.53;1.80;;;;;;;27.54;31.21;101621.97;5291614;28;20060;-74
2022/07/28 10:32:09;;;;;;;4.35;1.60;;;;;;;27.89;31.30;101630.13;5291314;28;20059;-73
2022/07/28 10:34:47;;;;;;;;;;;;;;;29.74;31.94;101621.41;5290541;28;20472;-73
2022/07/28 10:37:24;;;;;;;6.90;1.95;;;;;;;29.00;29.54;101615.66;5287335;28;19995;-73
2022/07/28 10:40:24;;;;;;;3.53;1.77;;;;;;;29.43;29.23;101623.00;5284999;28;20035;-74
2022/07/28 10:42:57;;;;;;;4.93;1.85;;;;;;;28.45;28.93;101618.00;5281761;28;20127;-74
2022/07/28 10:45:29;;;;;;;5.45;2.42;;;;;;;28.11;30.04;101620.53;5284803;28;20095;-74
2022/07/28 10:48:02;;;;;;;7.53;2.05;;;;;;;27.03;31.86;101613.00;5284879;28;20418;-75
2022/07/28 10:50:35;;;;;;;5.32;2.45;;;;;;;27.43;31.13;101612.88;5285073;28;20040;-74
2022/07/28 10:53:07;;;;;;;7.50;2.38;;;;;;;28.18;30.41;101616.44;5284185;28;20119;-74
2022/07/28 10:55:48;;;;;;;3.83;1.83;;;;;;;29.15;30.15;101608.22;5284674;28;20145;-74
2022/07/28 10:58:42;;;;;;;4.68;1.95;;;;;;;28.68;30.86;101606.44;5285078;28;20116;-74
2022/07/28 11:01:36;;;;;;;6.22;1.75;;;;;;;29.17;29.62;101606.25;5266458;28;20491;-73
2022/07/28 11:04:08;;;;;;;4.20;1.60;;;;;;;30.08;31.88;101604.38;5284442;28;20064;-73
2022/07/28 11:06:41;;;;;;;7.05;1.80;;;;;;;30.62;27.88;101605.28;5284239;28;20041;-73
2022/07/28 11:09:15;;;;;;;7.65;2.20;;;;;;;30.68;26.78;101602.91;5284134;28;20037;-74
2022/07/28 11:11:52;;;;;;;3.97;1.55;;;;;;;30.80;29.74;101605.53;5284849;28;20029;-75
2022/07/28 11:14:28;;;;;;;4.28;1.75;;;;;;;31.41;25.38;101593.94;5284476;28;20028;-74
2022/07/28 11:16:59;;;;;;;6.68;2.00;;;;;;;32.28;24.81;101593.31;5284983;28;20094;-74
2022/07/28 11:19:52;;;;;;;4.53;1.73;;;;;;;33.00;24.59;101582.13;5284532;28;20067;-75
2022/07/28 11:22:27;;;;;;;6.80;1.90;;;;;;;33.05;23.01;101575.28;5264935;28;20313;-75
2022/07/28 11:25:01;;;;;;;6.72;2.65;;;;;;;32.35;23.45;101583.66;5284408;28;20403;-75
2022/07/28 11:27:44;;;;;;;5.93;3.08;;;;;;;30.46;26.86;101581.50;5283578;28;20464;-75
2022/07/28 11:30:31;;;;;;;3.60;2.05;;;;;;;29.98;27.13;101580.09;5283999;28;20032;-75
2022/07/28 11:33:05;;;;;;;7.10;2.05;;;;;;;30.71;26.13;101583.81;5283880;28;20047;-75
2022/07/28 11:35:39;;;;;;;6.18;1.80;;;;;;;30.53;25.85;101588.09;5283524;28;20036;-75
2022/07/28 11:38:12;;;;;;;5.80;1.85;;;;;;;30.62;25.68;101575.66;5283414;28;20032;-74
2022/07/28 11:40:50;;;;;;;4.60;1.80;;;;;;;30.37;26.65;101577.75;5283580;28;20058;-75
2022/07/28 11:43:22;;;;;;;5.70;1.60;;;;;;;30.64;26.13;101558.41;5283966;28;20508;-75
2022/07/28 11:46:02;;;;;;;3.83;1.73;;;;;;;30.77;27.15;101558.22;5284389;28;20078;-74
2022/07/28 11:48:35;;;;;;;2.58;1.70;;;;;;;29.86;26.23;101559.63;5283855;28;20464;-75
2022/07/28 11:51:08;;;;;;;5.60;2.00;;;;;;;29.80;31.73;101559.16;5283200;28;20472;-75
2022/07/28 11:53:52;;;;;;;7.10;2.20;;;;;;;30.80;31.19;101554.38;5283118;28;20460;-75
2022/07/28 11:56:34;;;;;;;5.28;1.77;;;;;;;32.30;25.11;101561.66;5283425;28;20363;-75
2022/07/28 11:59:09;;;;;;;4.05;1.80;;;;;;;33.49;24.24;101553.06;5283528;28;20025;-75
2022/07/28 12:01:51;;;;;;;6.72;1.90;;;;;;;33.54;22.82;101558.03;5283023;28;20029;-74